Time;durP1;ratioP1;P1;durP2;ratioP2;P2;SDS_P1;SDS_P2;PMS_P1;PMS_P2;Temp;Humidity;BMP_temperature;BMP_pressure;BME280_temperature;BME280_humidity;BME280_pressure;Samples;Min_cycle;Max_cycle;Signal;HPM_P1;HPM_P2
2022/03/28 00:01:18;;;;;;;14.18;7.20;;;;;;;11.18;44.98;100753.22;5052052;28;20104;-37
2022/03/28 00:03:44;;;;;;;12.30;6.72;;;;;;;10.69;46.07;100751.84;5051836;28;20036;-37
2022/03/28 00:06:09;;;;;;;12.55;7.10;;;;;;;11.04;45.16;100752.19;5051357;28;20136;-36
2022/03/28 00:08:36;;;;;;;14.20;7.13;;;;;;;11.15;45.46;100749.88;5051793;28;20100;-37
2022/03/28 00:11:01;;;;;;;15.13;7.15;;;;;;;10.97;45.48;100749.44;5051879;28;20114;-36
2022/03/28 00:13:27;;;;;;;11.57;6.63;;;;;;;10.64;46.57;100752.38;5051145;28;20485;-37
2022/03/28 00:15:52;;;;;;;11.23;6.90;;;;;;;10.91;45.77;100743.00;5051333;28;20017;-36
2022/03/28 00:18:18;;;;;;;13.35;6.75;;;;;;;10.68;46.23;100747.50;5051740;28;20029;-37
2022/03/28 00:20:46;;;;;;;13.93;7.40;;;;;;;10.55;46.78;100748.13;5051694;28;20476;-36
2022/03/28 00:23:13;;;;;;;15.95;7.20;;;;;;;10.57;47.14;100748.78;5051533;28;20021;-36
2022/03/28 00:25:40;;;;;;;17.75;7.25;;;;;;;9.63;49.20;100746.16;5051391;28;20079;-36
2022/03/28 00:28:06;;;;;;;18.88;7.10;;;;;;;9.79;48.74;100759.38;5051446;28;20024;-37
2022/03/28 00:30:32;;;;;;;14.55;6.95;;;;;;;9.68;49.49;100740.34;5051454;28;20451;-37
2022/03/28 00:32:59;;;;;;;11.82;6.57;;;;;;;10.03;48.27;100762.91;5051336;28;20029;-37
2022/03/28 00:35:25;;;;;;;13.38;7.05;;;;;;;9.73;49.87;100769.88;5051192;28;20082;-37
2022/03/28 00:37:51;;;;;;;14.48;7.28;;;;;;;10.14;48.65;100769.66;5051096;28;20049;-37
2022/03/28 00:40:17;;;;;;;13.85;6.53;;;;;;;9.42;50.92;100777.78;5051601;28;20051;-37
2022/03/28 00:42:43;;;;;;;12.00;6.68;;;;;;;9.31;51.23;100763.88;5051187;28;20049;-37
2022/03/28 00:45:09;;;;;;;11.75;6.57;;;;;;;9.19;52.17;100773.19;5050995;28;20021;-37
2022/03/28 00:47:34;;;;;;;12.60;6.88;;;;;;;8.87;53.21;100769.59;5051159;28;20488;-37
2022/03/28 00:50:00;;;;;;;12.77;6.55;;;;;;;9.08;53.10;100774.41;5051455;28;20500;-38
2022/03/28 00:52:26;;;;;;;15.50;7.05;;;;;;;8.50;54.83;100770.91;5051014;28;20162;-38
2022/03/28 00:54:52;;;;;;;14.85;6.90;;;;;;;8.80;53.88;100777.41;5051059;28;20025;-37
2022/03/28 00:57:18;;;;;;;13.10;7.25;;;;;;;9.20;52.80;100783.66;5050954;28;20596;-38
2022/03/28 00:59:44;;;;;;;15.65;7.18;;;;;;;8.41;55.29;100777.19;5050738;28;20111;-37
2022/03/28 01:02:10;;;;;;;15.82;7.18;;;;;;;8.87;54.23;100780.22;5050949;28;20148;-37
2022/03/28 01:04:37;;;;;;;11.35;6.88;;;;;;;9.23;53.54;100781.66;5050393;28;20473;-37
2022/03/28 01:07:05;;;;;;;17.20;7.65;;;;;;;8.79;54.67;100777.56;5050543;28;20549;-37
2022/03/28 01:09:31;;;;;;;13.75;7.13;;;;;;;8.75;55.46;100786.84;5050766;28;20025;-38
2022/03/28 01:11:58;;;;;;;14.57;7.78;;;;;;;8.45;56.16;100783.00;5050607;28;20378;-38
2022/03/28 01:14:26;;;;;;;15.30;8.05;;;;;;;8.52;56.83;100789.34;5050508;28;20401;-36
2022/03/28 01:19:35;;;;;;;17.83;7.72;;;;;;;8.66;56.52;100780.69;5050364;28;20051;-37
2022/03/28 01:22:01;;;;;;;13.27;7.85;;;;;;;8.66;56.58;100788.66;5050637;28;20017;-36
2022/03/28 01:24:27;;;;;;;16.60;7.70;;;;;;;8.47;57.22;100783.69;5050524;28;20021;-36
2022/03/28 01:26:55;;;;;;;18.63;8.57;;;;;;;8.73;56.51;100792.31;5050865;28;20025;-37
2022/03/28 01:29:21;;;;;;;17.77;8.70;;;;;;;8.47;56.79;100787.16;5051497;28;20104;-37
2022/03/28 01:31:46;;;;;;;17.25;8.25;;;;;;;8.13;57.67;100768.66;5050794;28;20132;-36
2022/03/28 01:34:20;;;;;;;14.98;8.43;;;;;;;7.86;59.03;100786.47;5051367;28;20052;-36
2022/03/28 01:36:47;;;;;;;16.10;9.15;;;;;;;7.96;59.37;100802.28;5051294;28;20029;-36
2022/03/28 01:39:17;;;;;;;14.75;8.27;;;;;;;7.97;59.03;100801.28;5051277;28;20185;-36
2022/03/28 01:41:43;;;;;;;16.35;7.43;;;;;;;8.05;58.58;100800.47;5051042;28;20021;-37
2022/03/28 01:44:08;;;;;;;12.68;7.68;;;;;;;8.19;58.26;100776.81;5050943;28;20021;-37
2022/03/28 01:46:44;;;;;;;18.92;8.20;;;;;;;7.72;59.80;100795.06;5051219;28;20119;-37
2022/03/28 01:49:11;;;;;;;19.58;8.10;;;;;;;7.67;59.78;100800.00;5051214;28;20448;-37
2022/03/28 01:51:36;;;;;;;17.13;7.82;;;;;;;7.35;61.75;100794.38;5050753;28;20484;-37
2022/03/28 01:54:02;;;;;;;19.40;8.35;;;;;;;7.26;62.29;100795.31;5051259;28;20151;-37
2022/03/28 01:56:28;;;;;;;15.70;8.40;;;;;;;7.02;63.17;100791.50;5051015;28;20420;-37
2022/03/28 01:58:54;;;;;;;17.80;8.30;;;;;;;6.94;64.35;100802.03;5050905;28;20808;-37
2022/03/28 02:01:19;;;;;;;16.15;8.07;;;;;;;6.94;63.97;100798.56;5051208;28;20040;-37
2022/03/28 02:03:45;;;;;;;18.10;9.55;;;;;;;7.01;65.00;100795.16;5050638;28;20139;-37
2022/03/28 02:06:10;;;;;;;18.70;8.70;;;;;;;6.84;65.54;100790.72;5050846;28;20053;-37
2022/03/28 02:08:36;;;;;;;19.73;9.00;;;;;;;7.02;65.32;100798.63;5051047;28;20063;-36
2022/03/28 02:11:01;;;;;;;16.75;9.00;;;;;;;7.15;64.62;100800.88;5051041;28;20035;-37
2022/03/28 02:13:27;;;;;;;17.33;9.10;;;;;;;7.08;65.21;100800.63;5050269;28;20021;-37
2022/03/28 02:15:52;;;;;;;14.52;8.55;;;;;;;6.70;67.11;100805.34;5050778;28;20527;-37
2022/03/28 02:18:18;;;;;;;19.60;8.82;;;;;;;6.73;66.97;100796.25;5054490;28;20021;-37
2022/03/28 02:20:43;;;;;;;17.35;8.82;;;;;;;6.51;67.74;100806.31;5054369;28;20032;-37
2022/03/28 02:23:09;;;;;;;18.48;8.88;;;;;;;6.65;67.56;100797.84;5054566;28;20013;-36
2022/03/28 02:25:37;;;;;;;20.13;9.27;;;;;;;6.90;67.26;100802.50;5054105;28;20056;-37
2022/03/28 02:28:03;;;;;;;17.40;9.60;;;;;;;6.74;67.27;100793.47;5054539;28;20024;-37
2022/03/28 02:30:30;;;;;;;16.35;9.13;;;;;;;6.87;67.81;100814.22;5054151;28;20021;-37
2022/03/28 02:32:56;;;;;;;20.58;9.00;;;;;;;6.67;68.80;100802.97;5054125;28;20388;-36
2022/03/28 02:35:22;;;;;;;20.55;10.27;;;;;;;6.55;69.15;100812.97;5053799;28;20107;-36
2022/03/28 02:37:47;;;;;;;19.25;10.73;;;;;;;6.78;68.31;100815.97;5054606;28;20104;-36
2022/03/28 02:40:13;;;;;;;20.88;10.88;;;;;;;6.73;68.49;100814.78;5054333;28;20025;-37
2022/03/28 02:42:38;;;;;;;18.60;10.55;;;;;;;6.72;68.78;100821.03;5053914;28;20025;-36
2022/03/28 02:45:04;;;;;;;21.63;10.10;;;;;;;6.48;69.74;100813.72;5053663;28;20515;-37
2022/03/28 02:47:30;;;;;;;18.75;9.45;;;;;;;6.62;69.67;100823.75;5054172;28;20028;-36
2022/03/28 02:49:55;;;;;;;19.30;10.25;;;;;;;7.12;68.36;100827.63;5053966;28;20025;-36
2022/03/28 02:52:22;;;;;;;15.40;9.38;;;;;;;7.07;67.82;100824.63;5054142;28;20373;-36
2022/03/28 02:54:47;;;;;;;22.38;10.15;;;;;;;7.09;67.65;100822.66;5053631;28;20159;-36
2022/03/28 02:57:13;;;;;;;21.60;9.73;;;;;;;6.82;69.07;100816.50;5053841;28;20096;-36
2022/03/28 02:59:39;;;;;;;17.60;9.48;;;;;;;6.54;70.48;100819.22;5053772;28;20025;-36
2022/03/28 03:02:05;;;;;;;22.13;9.70;;;;;;;6.48;70.57;100833.06;5053533;28;20029;-36
2022/03/28 03:04:34;;;;;;;19.33;9.65;;;;;;;6.29;71.65;100825.25;5053290;28;20020;-36
2022/03/28 03:06:59;;;;;;;20.55;10.15;;;;;;;6.19;72.22;100827.97;5052965;28;20064;-36
2022/03/28 03:09:25;;;;;;;19.10;9.85;;;;;;;6.56;71.01;100819.91;5053463;28;20033;-37
2022/03/28 03:11:51;;;;;;;16.00;9.70;;;;;;;6.45;71.74;100833.34;5052192;28;20021;-37
2022/03/28 03:14:17;;;;;;;18.60;10.80;;;;;;;6.76;71.16;100831.19;5052873;28;20117;-37
2022/03/28 03:16:43;;;;;;;21.55;10.60;;;;;;;6.75;70.31;100839.25;5052896;28;20021;-37
2022/03/28 03:19:09;;;;;;;20.58;10.18;;;;;;;6.64;71.17;100835.00;5053470;28;20571;-36
2022/03/28 03:21:34;;;;;;;27.50;10.32;;;;;;;6.45;71.74;100847.41;5053362;28;20486;-37
2022/03/28 03:24:00;;;;;;;16.92;9.77;;;;;;;6.70;71.12;100849.44;5053420;28;20447;-37
2022/03/28 03:26:25;;;;;;;17.55;9.80;;;;;;;6.50;71.50;100849.59;5053077;28;20021;-37
2022/03/28 03:28:51;;;;;;;22.85;10.45;;;;;;;6.45;71.74;100854.50;5052160;28;20028;-37
2022/03/28 03:31:16;;;;;;;21.40;9.52;;;;;;;6.15;72.83;100860.94;5052309;28;20104;-38
2022/03/28 03:33:42;;;;;;;20.52;9.95;;;;;;;6.49;71.69;100852.38;5051713;28;20064;-37
2022/03/28 03:36:07;;;;;;;22.33;10.60;;;;;;;6.57;70.92;100858.59;5051725;28;20029;-37
2022/03/28 03:38:33;;;;;;;21.35;9.68;;;;;;;6.36;71.85;100869.47;5051766;28;20033;-37
2022/03/28 03:40:58;;;;;;;21.75;9.82;;;;;;;6.61;70.74;100867.91;5051736;28;20496;-37
2022/03/28 03:43:25;;;;;;;22.90;10.20;;;;;;;6.75;70.39;100863.88;5051880;28;20029;-36
2022/03/28 03:45:51;;;;;;;20.38;10.40;;;;;;;6.49;71.32;100866.44;5052051;28;20037;-36
2022/03/28 03:48:18;;;;;;;22.02;10.02;;;;;;;6.72;70.74;100884.53;5052791;28;20465;-36
2022/03/28 03:50:44;;;;;;;20.10;10.20;;;;;;;6.70;70.51;100881.19;5052863;28;20392;-36
2022/03/28 03:53:10;;;;;;;23.38;10.10;;;;;;;6.61;70.56;100882.94;5052801;28;20541;-37
2022/03/28 03:55:36;;;;;;;22.63;10.10;;;;;;;6.43;71.53;100882.91;5052869;28;20501;-37
2022/03/28 03:58:02;;;;;;;20.95;9.60;;;;;;;6.24;71.73;100882.06;5053178;28;20039;-36
2022/03/28 04:00:27;;;;;;;19.05;9.43;;;;;;;6.34;71.48;100891.72;5052263;28;20028;-36
2022/03/28 04:02:53;;;;;;;19.33;9.50;;;;;;;6.51;71.06;100896.25;5052444;28;20028;-36
2022/03/28 04:05:19;;;;;;;21.77;9.68;;;;;;;6.48;70.79;100875.38;5048041;28;20041;-37
2022/03/28 04:07:44;;;;;;;18.42;9.70;;;;;;;6.37;71.19;100896.72;5049526;28;20033;-36
2022/03/28 04:10:10;;;;;;;25.13;10.73;;;;;;;6.89;73.20;100894.28;5051899;28;20033;-36
2022/03/28 04:12:36;;;;;;;21.52;10.52;;;;;;;6.94;69.20;100899.13;5052082;28;20024;-36
2022/03/28 04:15:02;;;;;;;19.75;10.40;;;;;;;6.66;70.08;100901.81;5052302;28;20028;-37
2022/03/28 04:17:28;;;;;;;23.80;10.07;;;;;;;6.50;70.34;100904.31;5052152;28;20025;-37
2022/03/28 04:19:58;;;;;;;25.10;10.80;;;;;;;6.55;70.71;100904.69;5051550;28;20461;-37
2022/03/28 04:22:24;;;;;;;19.00;10.20;;;;;;;6.61;70.62;100906.75;5051840;28;20037;-36
2022/03/28 04:24:50;;;;;;;24.70;11.45;;;;;;;6.73;69.87;100910.00;5051576;28;20386;-37
2022/03/28 04:27:15;;;;;;;24.40;12.70;;;;;;;6.75;69.75;100918.63;5051782;28;20461;-36
2022/03/28 04:29:41;;;;;;;28.05;11.85;;;;;;;7.60;71.86;100919.03;5051590;28;20064;-38
2022/03/28 04:32:07;;;;;;;24.92;11.93;;;;;;;7.29;69.15;100930.06;5050955;28;20021;-37
2022/03/28 04:34:32;;;;;;;26.05;11.55;;;;;;;7.21;69.08;100922.03;5051531;28;20037;-37
2022/03/28 04:36:58;;;;;;;24.73;11.98;;;;;;;7.03;69.42;100924.69;5035192;28;20121;-37
2022/03/28 04:39:23;;;;;;;22.63;11.55;;;;;;;7.06;69.21;100924.38;5050916;28;20064;-37
2022/03/28 04:41:48;;;;;;;23.42;12.05;;;;;;;7.88;71.58;100927.66;5051137;28;20029;-37
2022/03/28 04:44:14;;;;;;;22.17;11.43;;;;;;;8.35;65.73;100932.50;5051259;28;20025;-37
2022/03/28 04:46:39;;;;;;;27.10;11.30;;;;;;;8.91;62.61;100932.88;5051128;28;20062;-37
2022/03/28 04:49:05;;;;;;;24.27;11.50;;;;;;;8.97;62.51;100931.38;5050779;28;20059;-37
2022/03/28 04:51:30;;;;;;;22.00;11.23;;;;;;;9.23;60.89;100933.88;5048861;28;20187;-37
2022/03/28 04:53:56;;;;;;;25.30;11.80;;;;;;;9.52;59.82;100943.16;5048284;28;20035;-37
2022/03/28 04:56:21;;;;;;;59.85;27.88;;;;;;;9.26;60.76;100949.50;5048677;28;20025;-37
2022/03/28 04:58:46;;;;;;;22.80;11.82;;;;;;;9.58;59.26;100950.50;5048869;28;20029;-37
2022/03/28 05:01:12;;;;;;;22.42;10.98;;;;;;;9.41;59.65;100948.84;5048464;28;20743;-38
2022/03/28 05:03:37;;;;;;;22.60;11.10;;;;;;;9.44;59.30;100948.50;5047865;28;20489;-38
2022/03/28 05:06:03;;;;;;;25.52;13.73;;;;;;;9.63;59.15;100957.94;5048628;28;20132;-37
2022/03/28 05:08:28;;;;;;;18.40;10.45;;;;;;;9.84;58.50;100949.44;5049321;28;20040;-37
2022/03/28 05:10:54;;;;;;;21.38;10.38;;;;;;;10.48;56.55;100958.25;5049810;28;20036;-37
2022/03/28 05:13:20;;;;;;;19.48;9.88;;;;;;;10.74;55.10;100957.16;5050498;28;20029;-37
2022/03/28 05:15:46;;;;;;;22.42;10.88;;;;;;;10.70;54.94;100958.47;5050657;28;20116;-38
2022/03/28 05:18:14;;;;;;;19.77;10.13;;;;;;;11.10;53.56;100968.06;5050388;28;20092;-37
2022/03/28 05:20:40;;;;;;;19.75;9.27;;;;;;;11.22;52.96;100957.00;5050653;28;20086;-37
2022/03/28 05:23:05;;;;;;;21.48;10.30;;;;;;;11.51;52.31;100957.06;5050579;28;20460;-37
2022/03/28 05:25:31;;;;;;;23.27;10.52;;;;;;;11.51;51.73;100956.25;5049952;28;20063;-36
2022/03/28 05:27:56;;;;;;;26.73;10.68;;;;;;;11.83;51.03;100947.13;5050331;28;20059;-37
2022/03/28 05:30:22;;;;;;;27.27;9.95;;;;;;;11.98;49.91;100955.19;5050164;28;20477;-36
2022/03/28 05:32:48;;;;;;;23.95;9.40;;;;;;;12.19;49.44;100957.09;5050813;28;20025;-36
2022/03/28 05:35:14;;;;;;;17.85;8.98;;;;;;;12.72;48.89;100956.97;5050007;28;20109;-37
2022/03/28 05:37:40;;;;;;;20.63;9.07;;;;;;;13.22;47.70;100965.09;5050236;28;20476;-37
2022/03/28 05:40:08;;;;;;;19.00;9.32;;;;;;;13.50;46.36;100957.16;5050252;28;20043;-37
2022/03/28 05:42:34;;;;;;;19.55;8.45;;;;;;;13.95;45.42;100964.88;5050164;28;20032;-37
2022/03/28 05:44:59;;;;;;;19.65;8.63;;;;;;;13.89;45.10;100967.28;5050241;28;20061;-39
2022/03/28 05:47:25;;;;;;;19.13;8.65;;;;;;;13.56;45.68;100977.75;5050080;28;20020;-38
2022/03/28 05:49:51;;;;;;;22.55;9.15;;;;;;;13.94;45.28;100968.59;5050507;28;20060;-38
2022/03/28 05:52:16;;;;;;;17.48;8.27;;;;;;;13.65;45.75;100971.25;5053567;28;20386;-38
2022/03/28 05:54:42;;;;;;;18.65;8.65;;;;;;;14.35;44.29;100978.47;5054228;28;20474;-38
2022/03/28 05:57:07;;;;;;;20.98;8.23;;;;;;;14.37;43.39;100971.91;5054067;28;20029;-39
2022/03/28 05:59:33;;;;;;;15.40;7.72;;;;;;;13.94;43.74;100966.72;5054484;28;20031;-40
2022/03/28 06:01:58;;;;;;;17.05;7.55;;;;;;;14.47;42.81;100982.25;5053924;28;20388;-36
2022/03/28 06:04:24;;;;;;;20.08;7.90;;;;;;;13.83;43.77;100972.63;5053305;28;20028;-39
2022/03/28 06:06:49;;;;;;;16.17;8.43;;;;;;;14.11;43.05;100975.28;5053905;28;20057;-37
2022/03/28 06:09:15;;;;;;;20.25;7.47;;;;;;;14.38;42.30;100972.75;5053812;28;20428;-38
2022/03/28 06:11:41;;;;;;;20.10;8.23;;;;;;;13.88;43.60;100973.69;5053780;28;20162;-37
2022/03/28 06:14:06;;;;;;;14.07;7.82;;;;;;;14.49;42.57;100966.81;5053728;28;20028;-37
2022/03/28 06:16:32;;;;;;;13.75;7.57;;;;;;;14.96;41.82;100973.19;5053665;28;20039;-38
2022/03/28 06:18:57;;;;;;;23.80;7.70;;;;;;;15.13;40.73;100981.66;5053211;28;20020;-38
2022/03/28 06:21:23;;;;;;;12.35;7.78;;;;;;;15.49;39.72;100976.97;5053349;28;20029;-38
2022/03/28 06:23:49;;;;;;;15.43;7.93;;;;;;;15.94;38.70;100983.38;5053876;28;20488;-38
2022/03/28 06:26:16;;;;;;;14.70;7.40;;;;;;;15.84;38.40;100977.63;5053433;28;20059;-38
2022/03/28 06:28:41;;;;;;;16.85;7.68;;;;;;;15.29;39.04;100968.91;5052811;28;20024;-37
2022/03/28 06:31:08;;;;;;;20.35;7.53;;;;;;;15.81;39.13;100976.16;5053446;28;20032;-38
2022/03/28 06:33:34;;;;;;;15.48;7.60;;;;;;;15.86;38.21;100974.72;5053125;28;20025;-38
2022/03/28 06:36:00;;;;;;;17.73;8.00;;;;;;;16.12;38.59;100969.28;5053528;28;20028;-37
2022/03/28 06:38:25;;;;;;;15.13;7.63;;;;;;;15.69;38.59;100967.06;5053519;28;20021;-38
2022/03/28 06:40:50;;;;;;;14.20;7.97;;;;;;;15.67;38.84;100979.03;5052043;28;20028;-37
2022/03/28 06:43:16;;;;;;;17.15;8.10;;;;;;;16.22;38.56;100980.44;5052908;28;20020;-37
2022/03/28 06:45:42;;;;;;;14.27;8.07;;;;;;;16.79;37.19;100979.81;5053046;28;20108;-37
2022/03/28 06:48:07;;;;;;;17.88;7.75;;;;;;;16.20;37.04;100971.78;5053232;28;20068;-40
2022/03/28 06:50:36;;;;;;;19.73;7.53;;;;;;;16.46;36.25;100969.22;5052916;28;20040;-38
2022/03/28 06:53:02;;;;;;;14.02;7.65;;;;;;;16.99;35.58;100977.88;5052702;28;20029;-38
2022/03/28 06:55:28;;;;;;;15.10;7.60;;;;;;;16.03;37.44;100975.94;5052920;28;20060;-38
2022/03/28 06:57:54;;;;;;;14.48;7.30;;;;;;;15.86;37.06;100978.25;5052895;28;20112;-37
2022/03/28 07:00:19;;;;;;;15.98;7.57;;;;;;;15.57;37.98;100969.56;5052948;28;20021;-38
2022/03/28 07:02:45;;;;;;;17.00;7.75;;;;;;;15.88;37.23;100943.13;5051771;28;20029;-37
2022/03/28 07:05:11;;;;;;;12.63;7.00;;;;;;;16.06;37.03;100964.78;5052607;28;20033;-39
2022/03/28 07:07:46;;;;;;;14.82;7.05;;;;;;;16.65;36.11;100967.47;5052790;28;20036;-37
2022/03/28 07:10:14;;;;;;;17.58;7.40;;;;;;;15.64;37.04;100975.72;5052674;28;20158;-37
2022/03/28 07:12:39;;;;;;;16.17;6.78;;;;;;;15.47;38.24;100958.41;5052191;28;20025;-38
2022/03/28 07:15:06;;;;;;;13.95;6.78;;;;;;;15.74;37.39;100975.34;5053032;28;20024;-37
2022/03/28 07:17:44;;;;;;;11.38;6.70;;;;;;;15.23;38.13;100971.41;5052612;28;20488;-37
2022/03/28 07:20:10;;;;;;;14.80;7.32;;;;;;;15.38;38.90;100973.88;5052782;28;20032;-37
2022/03/28 07:22:36;;;;;;;13.32;7.18;;;;;;;15.87;37.07;100950.34;5052877;28;20013;-38
2022/03/28 07:25:01;;;;;;;15.57;7.28;;;;;;;15.49;37.96;100967.06;5052559;28;20473;-38
2022/03/28 07:27:27;;;;;;;14.25;7.30;;;;;;;15.53;37.89;100967.47;5052625;28;20024;-38
2022/03/28 07:29:52;;;;;;;14.70;7.18;;;;;;;15.25;37.94;100963.16;5052017;28;20031;-38
2022/03/28 07:32:17;;;;;;;16.92;7.00;;;;;;;16.37;36.13;100956.03;5051976;28;20054;-38
2022/03/28 07:34:43;;;;;;;15.43;6.80;;;;;;;17.27;35.72;100959.69;5051673;28;20021;-38
2022/03/28 07:37:10;;;;;;;16.73;7.05;;;;;;;17.02;35.08;100965.03;5051991;28;20020;-37
2022/03/28 07:39:38;;;;;;;15.10;7.40;;;;;;;16.67;35.43;100962.72;5052363;28;20029;-37
2022/03/28 07:42:07;;;;;;;14.88;7.55;;;;;;;16.54;36.36;100950.16;5052020;28;20029;-39
2022/03/28 07:44:33;;;;;;;;;;;;;;;16.33;36.88;100957.47;5051946;28;20459;-38
2022/03/28 07:46:58;;;;;;;13.30;6.70;;;;;;;16.48;36.67;100957.19;5051785;28;19909;-37
2022/03/28 07:49:24;;;;;;;15.57;7.22;;;;;;;16.54;36.63;100956.34;5051760;28;20060;-38
2022/03/28 07:51:50;;;;;;;13.45;7.30;;;;;;;16.68;36.43;100948.22;5051858;28;20039;-39
2022/03/28 07:54:16;;;;;;;14.93;7.38;;;;;;;16.51;37.25;100946.03;5051637;28;20420;-37
2022/03/28 07:56:41;;;;;;;15.90;7.50;;;;;;;17.31;35.79;100944.78;5051888;28;20025;-37
2022/03/28 07:59:07;;;;;;;15.82;7.63;;;;;;;17.79;35.20;100936.88;5051832;28;20118;-38
2022/03/28 08:01:32;;;;;;;14.27;7.60;;;;;;;17.39;35.52;100947.19;5051957;28;20025;-37
2022/03/28 08:03:57;;;;;;;15.27;7.70;;;;;;;17.53;35.81;100939.81;5051228;28;20025;-38
2022/03/28 08:06:24;;;;;;;12.80;7.03;;;;;;;16.95;37.08;100936.31;5051424;28;20102;-38
2022/03/28 08:08:49;;;;;;;15.40;7.80;;;;;;;17.41;35.75;100926.28;5051432;28;20112;-37
2022/03/28 08:11:15;;;;;;;14.27;7.63;;;;;;;18.14;34.86;100922.03;5051341;28;20052;-37
2022/03/28 08:13:41;;;;;;;13.73;7.18;;;;;;;17.92;35.49;100938.66;5051136;28;20029;-38
2022/03/28 08:16:08;;;;;;;15.68;7.80;;;;;;;17.76;35.13;100913.13;5051278;28;20033;-37
2022/03/28 08:18:36;;;;;;;14.55;7.47;;;;;;;18.93;33.47;100895.94;5051492;28;20028;-38
2022/03/28 08:21:01;;;;;;;15.57;6.97;;;;;;;19.83;32.60;100921.03;5051258;28;20032;-38
2022/03/28 08:23:26;;;;;;;15.57;7.53;;;;;;;19.36;32.69;100929.09;5051377;28;20025;-37
2022/03/28 08:25:53;;;;;;;14.15;7.68;;;;;;;19.36;32.76;100912.91;5051477;28;20028;-38
2022/03/28 08:28:19;;;;;;;13.10;7.68;;;;;;;19.02;33.24;100904.53;5051259;28;20493;-37
2022/03/28 08:30:45;;;;;;;11.43;7.13;;;;;;;20.11;32.04;100897.88;5051277;28;20032;-38
2022/03/28 08:33:10;;;;;;;16.70;7.65;;;;;;;20.92;30.64;100894.25;5051079;28;20546;-38
2022/03/28 08:35:36;;;;;;;12.77;7.63;;;;;;;21.16;30.04;100900.34;5051112;28;20016;-37
2022/03/28 08:38:02;;;;;;;15.10;7.70;;;;;;;21.50;29.86;100890.34;5050941;28;20117;-38
2022/03/28 08:40:28;;;;;;;17.48;8.15;;;;;;;21.43;29.09;100897.81;5051150;28;20070;-38
2022/03/28 08:42:54;;;;;;;16.55;7.60;;;;;;;20.87;29.51;100881.47;5050832;28;20017;-38
2022/03/28 08:45:19;;;;;;;12.35;7.82;;;;;;;20.34;30.46;100864.53;5051113;28;20108;-38
2022/03/28 08:47:47;;;;;;;12.85;7.88;;;;;;;18.52;33.77;100875.16;5051014;28;20024;-38
2022/03/28 08:50:14;;;;;;;15.05;7.68;;;;;;;18.75;33.40;100875.25;5051127;28;20025;-38
2022/03/28 08:52:41;;;;;;;12.15;7.70;;;;;;;18.80;33.51;100869.19;5050738;28;20064;-39
2022/03/28 08:55:08;;;;;;;14.02;7.88;;;;;;;18.89;33.49;100869.69;5050601;28;20476;-38
2022/03/28 08:57:34;;;;;;;12.23;7.68;;;;;;;18.94;34.12;100862.53;5050869;28;20028;-38
2022/03/28 09:00:00;;;;;;;14.52;7.43;;;;;;;19.87;32.55;100857.38;5050541;28;20170;-37
2022/03/28 09:02:46;;;;;;;11.30;7.95;;;;;;;19.08;33.70;100849.66;5050496;28;20021;-37
2022/03/28 09:05:16;;;;;;;17.27;8.20;;;;;;;19.03;34.00;100846.81;5050572;28;20159;-37
2022/03/28 09:07:42;;;;;;;13.20;7.55;;;;;;;20.20;32.69;100842.38;5050418;28;20485;-38
2022/03/28 09:10:14;;;;;;;12.70;8.13;;;;;;;19.99;32.13;100833.06;5050432;28;20028;-39
2022/03/28 09:13:08;;;;;;;17.77;8.38;;;;;;;20.55;31.63;100832.47;5050100;28;20033;-38
2022/03/28 09:15:48;;;;;;;16.48;8.30;;;;;;;21.03;31.28;100834.66;5050563;28;20031;-38
2022/03/28 09:18:21;;;;;;;;;;;;;;;20.82;30.66;100828.09;5050602;28;20108;-37
2022/03/28 09:20:51;;;;;;;14.82;8.45;;;;;;;20.02;31.41;100813.66;5050093;28;20312;-36
2022/03/28 09:23:31;;;;;;;15.30;7.90;;;;;;;19.03;32.83;100809.06;5049511;28;20009;-37
2022/03/28 09:25:57;;;;;;;11.10;7.45;;;;;;;19.18;32.59;100805.09;5049742;28;20515;-36
2022/03/28 09:28:47;;;;;;;12.60;7.35;;;;;;;18.82;33.31;100813.13;5050501;28;20033;-38
2022/03/28 09:31:26;;;;;;;12.57;7.72;;;;;;;19.52;32.43;100804.22;5043552;28;20040;-37
2022/03/28 09:34:07;;;;;;;12.82;7.30;;;;;;;19.99;32.27;100791.69;5049658;28;20120;-37
2022/03/28 09:36:41;;;;;;;15.27;7.60;;;;;;;19.90;31.64;100802.06;5049859;28;20135;-37
2022/03/28 09:39:32;;;;;;;15.00;7.00;;;;;;;20.41;32.08;100791.38;5050204;28;20020;-37
2022/03/28 09:42:02;;;;;;;18.05;7.18;;;;;;;20.85;31.14;100783.53;5044508;28;20055;-37
2022/03/28 09:44:40;;;;;;;18.75;7.95;;;;;;;20.49;32.07;100783.72;5049783;28;20090;-38
2022/03/28 09:47:07;;;;;;;13.85;7.70;;;;;;;20.76;30.84;100780.41;5049847;28;20044;-37
2022/03/28 09:49:33;;;;;;;15.63;8.18;;;;;;;21.01;29.32;100777.28;5050057;28;20021;-37
2022/03/28 09:52:11;;;;;;;11.50;7.38;;;;;;;21.47;29.66;100777.94;5049786;28;20107;-38
2022/03/28 09:54:56;;;;;;;13.70;8.05;;;;;;;20.86;30.07;100771.63;5049682;28;20029;-37
2022/03/28 09:57:26;;;;;;;19.00;7.70;;;;;;;20.89;30.32;100771.94;5050029;28;20190;-38
2022/03/28 09:59:53;;;;;;;11.48;7.50;;;;;;;21.39;29.89;100756.69;5049590;28;20561;-37
2022/03/28 10:02:24;;;;;;;17.00;7.13;;;;;;;20.72;30.91;100762.22;5049608;28;20167;-38
2022/03/28 10:04:53;;;;;;;13.93;7.55;;;;;;;20.65;30.97;100755.06;5049692;28;20036;-37
2022/03/28 10:07:20;;;;;;;14.32;7.60;;;;;;;19.69;32.64;100752.22;5049369;28;20114;-39
2022/03/28 10:09:46;;;;;;;12.23;7.50;;;;;;;20.53;31.48;100737.28;5049590;28;20079;-38
2022/03/28 10:12:12;;;;;;;11.80;7.72;;;;;;;20.64;31.43;100733.72;5049246;28;20032;-39
2022/03/28 10:14:38;;;;;;;14.23;7.50;;;;;;;21.00;30.57;100728.81;5049203;28;20029;-37
2022/03/28 10:17:06;;;;;;;14.60;7.78;;;;;;;20.93;30.60;100733.59;5050104;28;20039;-37
2022/03/28 10:19:34;;;;;;;11.77;7.03;;;;;;;20.90;31.04;100729.47;5049703;28;20056;-37
2022/03/28 10:22:06;;;;;;;16.73;7.72;;;;;;;19.69;32.88;100730.59;5049826;28;20255;-37
2022/03/28 10:24:34;;;;;;;14.48;7.03;;;;;;;19.72;32.58;100712.09;5049318;28;20054;-37
2022/03/28 10:27:02;;;;;;;11.68;6.90;;;;;;;20.32;31.11;100704.50;5049665;28;20081;-38
2022/03/28 10:29:40;;;;;;;15.07;7.40;;;;;;;20.86;30.63;100702.09;5049883;28;20045;-39
2022/03/28 10:32:15;;;;;;;13.25;7.43;;;;;;;21.26;30.31;100697.50;5049729;28;20456;-40
2022/03/28 10:34:56;;;;;;;15.40;7.45;;;;;;;21.52;29.08;100695.16;5049227;28;20510;-37
2022/03/28 10:37:36;;;;;;;14.73;7.95;;;;;;;21.29;29.70;100683.47;5049647;28;20032;-37
2022/03/28 10:40:23;;;;;;;15.20;7.03;;;;;;;21.35;29.49;100674.34;5053020;28;20634;-37
2022/03/28 10:42:55;;;;;;;9.77;7.03;;;;;;;21.25;29.35;100668.81;5053267;28;20476;-38
2022/03/28 10:45:30;;;;;;;13.25;7.15;;;;;;;21.19;29.23;100667.94;5052505;28;20119;-38
2022/03/28 10:47:58;;;;;;;12.07;7.20;;;;;;;21.77;29.14;100664.81;5053149;28;20059;-37
2022/03/28 10:50:28;;;;;;;13.27;7.13;;;;;;;21.62;28.82;100658.16;5052741;28;20504;-37
2022/03/28 10:53:10;;;;;;;12.65;7.93;;;;;;;21.97;28.89;100661.47;5052768;28;20392;-38
2022/03/28 10:55:41;;;;;;;11.55;7.20;;;;;;;21.36;29.45;100648.09;5052422;28;20039;-38
2022/03/28 10:58:14;;;;;;;15.85;7.90;;;;;;;21.18;29.70;100641.13;5053159;28;20040;-38
2022/03/28 11:01:05;;;;;;;12.52;7.22;;;;;;;21.38;29.66;100644.06;5052609;28;20472;-36
2022/03/28 11:03:36;;;;;;;11.00;7.28;;;;;;;21.39;29.89;100639.47;5052378;28;20025;-37
2022/03/28 11:06:03;;;;;;;15.52;7.93;;;;;;;21.23;30.39;100630.34;5052714;28;20048;-37
2022/03/28 11:08:36;;;;;;;13.07;7.53;;;;;;;20.48;30.96;100627.97;5052580;28;20500;-37
2022/03/28 11:11:20;;;;;;;11.88;8.00;;;;;;;20.91;30.49;100620.22;5052151;28;20103;-37
2022/03/28 11:14:11;;;;;;;12.32;7.45;;;;;;;21.07;30.11;100622.03;5052570;28;20028;-37
2022/03/28 11:16:54;;;;;;;15.35;7.50;;;;;;;20.87;30.36;100605.56;5052175;28;20021;-38
2022/03/28 11:19:25;;;;;;;14.63;7.80;;;;;;;20.74;30.80;100595.13;5051188;28;20127;-38
2022/03/28 11:22:06;;;;;;;16.83;7.55;;;;;;;20.99;30.35;100598.13;5052818;28;20024;-38
2022/03/28 11:24:56;;;;;;;13.75;7.35;;;;;;;21.01;30.26;100592.47;5052659;28;20404;-38